createdAt,value
2023-05-05T00:02:04.483Z,9.60
2023-05-05T00:04:31.202Z,9.60
2023-05-05T00:06:58.165Z,9.50
2023-05-05T00:09:25.073Z,9.50
2023-05-05T00:11:51.774Z,9.50
2023-05-05T00:14:18.327Z,9.40
2023-05-05T00:16:44.896Z,9.40
2023-05-05T00:19:11.449Z,9.40
2023-05-05T00:21:37.966Z,9.40
2023-05-05T00:24:04.873Z,9.40
2023-05-05T00:26:31.482Z,9.30
2023-05-05T00:28:58.024Z,9.30
2023-05-05T00:31:24.542Z,9.30
2023-05-05T00:33:51.141Z,9.30
2023-05-05T00:36:17.684Z,9.20
2023-05-05T00:38:44.300Z,9.30
2023-05-05T00:41:11.033Z,9.30
2023-05-05T00:43:37.606Z,9.20
2023-05-05T00:46:21.955Z,9.20
2023-05-05T00:48:48.698Z,9.30
2023-05-05T00:51:16.932Z,9.10
2023-05-05T00:53:45.092Z,9.10
2023-05-05T00:56:13.142Z,9.00
2023-05-05T00:58:42.760Z,9.00
2023-05-05T01:01:10.982Z,9.00
2023-05-05T01:03:39.271Z,9.00
2023-05-05T01:06:33.864Z,9.00
2023-05-05T01:12:08.546Z,8.70
2023-05-05T01:14:40.371Z,8.90
2023-05-05T01:17:19.343Z,8.90
2023-05-05T01:20:23.809Z,9.00
2023-05-05T01:22:56.694Z,8.90
2023-05-05T01:25:42.792Z,8.80
2023-05-05T01:28:36.941Z,8.70
2023-05-05T01:31:31.778Z,8.70
2023-05-05T01:34:08.435Z,8.70
2023-05-05T01:36:47.463Z,8.70
2023-05-05T01:39:16.446Z,8.70
2023-05-05T01:41:47.857Z,8.70
2023-05-05T01:44:16.752Z,8.70
2023-05-05T01:46:43.249Z,8.70
2023-05-05T01:51:39.504Z,8.50
2023-05-05T01:54:08.941Z,8.60
2023-05-05T01:56:40.224Z,8.60
2023-05-05T01:59:07.459Z,8.60
2023-05-05T02:01:37.420Z,8.50
2023-05-05T02:04:06.984Z,8.60
2023-05-05T02:06:35.063Z,8.50
2023-05-05T02:11:30.064Z,9.00
2023-05-05T02:21:20.886Z,8.40
2023-05-05T02:59:15.953Z,8.20
2023-05-05T03:01:46.604Z,8.30
2023-05-05T03:06:48.669Z,8.30
2023-05-05T03:09:36.759Z,8.10
2023-05-05T03:12:06.908Z,8.00
2023-05-05T03:14:41.718Z,8.00
2023-05-05T03:17:11.858Z,7.90
2023-05-05T03:19:42.172Z,7.90
2023-05-05T03:22:08.821Z,7.90
2023-05-05T03:24:35.380Z,7.90
2023-05-05T03:27:03.188Z,7.90
2023-05-05T03:29:30.106Z,7.90
2023-05-05T03:31:56.727Z,7.90
2023-05-05T03:34:23.313Z,7.90
2023-05-05T03:36:49.832Z,7.90
2023-05-05T03:39:16.979Z,7.80
2023-05-05T03:41:43.729Z,7.80
2023-05-05T03:44:10.436Z,7.80
2023-05-05T03:46:37.269Z,7.80
2023-05-05T03:49:03.772Z,7.80
2023-05-05T03:51:31.420Z,7.80
2023-05-05T03:53:57.910Z,7.80
2023-05-05T03:56:24.451Z,7.80
2023-05-05T03:58:50.965Z,7.80
2023-05-05T04:01:17.713Z,7.80
2023-05-05T04:03:44.344Z,7.80
2023-05-05T04:06:11.394Z,7.80
2023-05-05T04:08:38.125Z,7.90
2023-05-05T04:11:04.618Z,7.80
2023-05-05T04:13:31.405Z,7.70
2023-05-05T04:15:59.631Z,7.70
2023-05-05T04:18:26.477Z,7.80
2023-05-05T04:20:53.117Z,7.70
2023-05-05T04:23:19.602Z,7.70
2023-05-05T04:25:46.357Z,7.80
2023-05-05T04:28:12.941Z,7.70
2023-05-05T04:30:39.472Z,7.70
2023-05-05T04:33:06.153Z,7.70
2023-05-05T04:35:32.976Z,7.70
2023-05-05T04:37:59.508Z,7.80
2023-05-05T04:40:29.028Z,7.90
2023-05-05T04:42:55.592Z,7.70
2023-05-05T04:45:22.294Z,7.70
2023-05-05T04:47:49.140Z,7.80
2023-05-05T04:50:16.486Z,7.80
2023-05-05T04:52:43.014Z,7.80
2023-05-05T04:55:10.638Z,7.80
2023-05-05T04:57:37.238Z,7.80
2023-05-05T05:00:05.248Z,7.80
2023-05-05T05:02:31.964Z,7.80
2023-05-05T05:04:58.656Z,7.80
2023-05-05T05:07:25.905Z,7.90
2023-05-05T05:09:52.478Z,7.90
2023-05-05T05:12:18.987Z,7.90
2023-05-05T05:14:45.564Z,7.90
2023-05-05T05:17:12.110Z,8.00
2023-05-05T05:19:39.047Z,8.00
2023-05-05T05:22:05.532Z,8.10
2023-05-05T05:24:32.107Z,8.10
2023-05-05T05:26:58.643Z,8.10
2023-05-05T05:29:25.617Z,8.10
2023-05-05T05:31:52.151Z,8.20
2023-05-05T05:34:18.754Z,8.20
2023-05-05T05:36:45.304Z,8.20
2023-05-05T05:39:12.034Z,8.20
2023-05-05T05:41:38.564Z,8.30
2023-05-05T05:44:05.155Z,8.30
2023-05-05T05:46:31.702Z,8.30
2023-05-05T05:48:58.369Z,8.40
2023-05-05T05:51:24.869Z,8.40
2023-05-05T05:53:51.783Z,8.50
2023-05-05T05:56:18.349Z,8.50
2023-05-05T05:58:45.206Z,8.60
2023-05-05T06:01:11.899Z,8.60
2023-05-05T06:03:38.481Z,8.70
2023-05-05T06:06:05.274Z,8.80
2023-05-05T06:08:32.069Z,8.90
2023-05-05T06:11:00.405Z,8.90
2023-05-05T06:13:26.946Z,9.00
2023-05-05T06:15:53.483Z,9.10
2023-05-05T06:18:20.179Z,9.20
2023-05-05T06:20:50.091Z,9.20
2023-05-05T06:23:16.628Z,9.30
2023-05-05T06:25:43.185Z,9.30
2023-05-05T06:28:09.712Z,9.40
2023-05-05T06:30:36.254Z,9.40
2023-05-05T06:33:02.825Z,9.50
2023-05-05T06:35:30.267Z,9.60
2023-05-05T06:37:56.772Z,9.60
2023-05-05T06:40:23.327Z,9.70
2023-05-05T06:42:49.845Z,9.70
2023-05-05T06:45:16.728Z,9.80
2023-05-05T06:47:44.096Z,9.90
2023-05-05T06:50:11.141Z,10.00
2023-05-05T06:52:38.004Z,10.10
2023-05-05T06:55:04.820Z,10.20
2023-05-05T06:59:58.478Z,10.40
2023-05-05T07:02:26.674Z,10.60
2023-05-05T07:04:55.600Z,10.70
2023-05-05T07:07:22.497Z,10.70
2023-05-05T07:09:49.039Z,10.80
2023-05-05T07:12:15.636Z,10.80
2023-05-05T07:22:03.122Z,11.40
2023-05-05T07:24:29.701Z,11.50
2023-05-05T07:39:14.948Z,11.50
2023-05-05T07:41:42.575Z,11.70
2023-05-05T07:44:09.129Z,11.70
2023-05-05T07:46:35.692Z,11.70
2023-05-05T07:49:02.471Z,11.70
2023-05-05T07:51:29.630Z,11.70
2023-05-05T07:53:56.664Z,11.70
2023-05-05T07:56:23.230Z,11.70
2023-05-05T07:58:49.749Z,11.70
2023-05-05T08:01:16.536Z,11.70
2023-05-05T08:03:43.198Z,11.70
2023-05-05T08:06:10.396Z,11.70
2023-05-05T08:08:37.713Z,11.70
2023-05-05T08:11:06.347Z,11.70
2023-05-05T08:13:32.968Z,11.80
2023-05-05T08:15:59.982Z,11.80
2023-05-05T08:18:26.924Z,11.80
2023-05-05T08:20:54.556Z,11.90
2023-05-05T08:23:21.477Z,11.90
2023-05-05T08:25:48.082Z,12.00
2023-05-05T08:28:14.853Z,12.10
2023-05-05T08:30:41.883Z,12.20
2023-05-05T08:33:08.382Z,12.30
2023-05-05T08:35:34.922Z,12.40
2023-05-05T08:40:33.295Z,12.60
2023-05-05T08:43:01.306Z,12.60
2023-05-05T08:45:29.459Z,12.70
2023-05-05T08:48:04.022Z,12.90
2023-05-05T08:50:31.695Z,12.90
2023-05-05T08:53:15.666Z,13.00
2023-05-05T08:55:52.210Z,13.10
2023-05-05T09:03:14.465Z,13.40
2023-05-05T21:35:07.135Z,10.10
2023-05-05T21:37:33.775Z,10.00
2023-05-05T21:40:09.297Z,10.00
2023-05-05T21:42:38.475Z,10.00
2023-05-05T21:45:05.642Z,9.90
2023-05-05T21:47:32.558Z,9.90
2023-05-05T21:49:59.166Z,9.80
2023-05-05T21:52:25.910Z,9.80
2023-05-05T21:54:52.429Z,9.80
2023-05-05T21:57:19.188Z,9.80
2023-05-05T21:59:45.840Z,9.80
2023-05-05T22:02:14.875Z,9.70
2023-05-05T22:04:41.672Z,9.70
2023-05-05T22:07:11.055Z,9.60
2023-05-05T22:09:38.003Z,9.60
2023-05-05T22:12:04.792Z,9.60
2023-05-05T22:14:34.068Z,9.60
2023-05-05T22:17:03.569Z,9.50
2023-05-05T22:19:32.860Z,9.50
2023-05-05T22:22:08.664Z,9.50
2023-05-05T22:24:35.416Z,9.50
2023-05-05T22:27:05.261Z,9.40
2023-05-05T22:29:32.113Z,9.40
2023-05-05T22:32:01.328Z,9.40
2023-05-05T22:34:30.767Z,9.30
2023-05-05T22:36:57.271Z,9.30
2023-05-05T22:39:24.174Z,9.30
2023-05-05T22:41:53.486Z,9.30
2023-05-05T22:44:23.510Z,9.30
2023-05-05T22:46:53.523Z,9.30
2023-05-05T22:49:24.067Z,9.20
2023-05-05T22:51:56.431Z,9.20
2023-05-05T22:54:22.970Z,9.10
2023-05-05T22:56:55.231Z,9.10
2023-05-05T22:59:22.035Z,9.10
2023-05-05T23:01:48.954Z,9.10
2023-05-05T23:04:21.768Z,9.10
2023-05-05T23:06:48.390Z,9.00
2023-05-05T23:09:14.987Z,9.10
2023-05-05T23:11:41.589Z,9.10
2023-05-05T23:14:14.148Z,9.00
2023-05-05T23:16:43.794Z,9.20
2023-05-05T23:19:13.524Z,9.00
2023-05-05T23:21:52.527Z,9.00
2023-05-05T23:24:20.026Z,9.00
2023-05-05T23:29:25.076Z,9.30
2023-05-05T23:32:00.812Z,9.00
2023-05-05T23:34:27.905Z,9.10
2023-05-05T23:37:06.388Z,9.00
2023-05-05T23:39:34.617Z,9.50
2023-05-05T23:42:33.386Z,9.00
2023-05-05T23:45:06.370Z,9.10
2023-05-05T23:47:35.336Z,9.00
2023-05-05T23:50:02.309Z,9.00
2023-05-05T23:52:32.082Z,8.90
2023-05-05T23:55:03.015Z,8.80
